Terminal Aerodrome Forecast
Issued by NWS North Platte, NE

Home | Current Version | Previous Version | Text Only | Print | Product List | Glossary On
Versions: 1 2 3 4 5 6 7 8 9 10 11 12 13 14 15 16 17 18 19 20 21
000
FTUS43 KLBF 241340 AAB
TAFVTN
TAF AMD
KVTN 241340Z 2414/2512 03010KT 3SM -SN BR OVC006
      TEMPO 2414/2415 1/2SM -SN FZFG OVC002
     FM241500 03011KT 1SM -SN BR OVC003
     FM241800 01015G24KT 1/2SM SN BLSN OVC003
     FM250000 35020G31KT 1/2SM -SN BLSN OVC008
     FM250600 33021G29KT P6SM OVC008=

USA.gov is the U.S. government's official web portal to all federal, state and local government web resources and services.